Time;durP1;ratioP1;P1;durP2;ratioP2;P2;SDS_P1;SDS_P2;PMS_P1;PMS_P2;Temp;Humidity;BMP_temperature;BMP_pressure;BME280_temperature;BME280_humidity;BME280_pressure;Samples;Min_cycle;Max_cycle;Signal;HPM_P1;HPM_P2
2023/03/15 00:01:35;;;;;;;;;;;17.90;44.70;;;;;;10410346;28;805;-72
2023/03/15 00:06:32;;;;;;;;;;;17.90;44.60;;;;;;10410224;28;846;-73
2023/03/15 00:11:29;;;;;;;;;;;17.90;44.50;;;;;;10409250;28;1905;-73
2023/03/15 00:16:25;;;;;;;;;;;17.80;44.60;;;;;;10409255;28;758;-72
2023/03/15 00:21:21;;;;;;;;;;;17.90;44.60;;;;;;10409067;28;1178;-72
2023/03/15 00:26:16;;;;;;;;;;;17.90;44.50;;;;;;10408927;28;869;-73
2023/03/15 00:31:11;;;;;;;;;;;17.80;44.40;;;;;;10409331;28;1963;-73
2023/03/15 00:36:07;;;;;;;;;;;17.90;44.60;;;;;;10408532;28;929;-73
2023/03/15 00:41:02;;;;;;;;;;;17.90;44.80;;;;;;10407393;28;1235;-73
2023/03/15 00:45:58;;;;;;;;;;;17.90;44.80;;;;;;10407943;28;1323;-73
2023/03/15 00:50:53;;;;;;;;;;;17.90;44.70;;;;;;10408064;28;1970;-72
2023/03/15 00:55:49;;;;;;;;;;;17.80;44.80;;;;;;10408627;28;818;-73
2023/03/15 01:00:44;;;;;;;;;;;17.80;45.00;;;;;;10407832;28;799;-73
2023/03/15 01:05:40;;;;;;;;;;;17.80;45.00;;;;;;10407768;28;873;-73
2023/03/15 01:10:35;;;;;;;;;;;17.80;44.90;;;;;;10407619;28;1901;-72
2023/03/15 01:15:31;;;;;;;;;;;17.80;45.00;;;;;;10408147;28;936;-72
2023/03/15 01:20:26;;;;;;;;;;;17.80;45.00;;;;;;10407461;28;854;-73
2023/03/15 01:25:21;;;;;;;;;;;17.80;44.90;;;;;;10407086;28;901;-72
2023/03/15 01:30:17;;;;;;;;;;;17.80;44.90;;;;;;10407220;28;1897;-73
2023/03/15 01:35:12;;;;;;;;;;;17.80;45.00;;;;;;10407677;28;874;-73
2023/03/15 01:40:08;;;;;;;;;;;17.70;44.90;;;;;;10407628;28;1218;-73
2023/03/15 01:45:03;;;;;;;;;;;17.70;44.70;;;;;;10406637;28;881;-72
2023/03/15 01:49:59;;;;;;;;;;;17.80;44.70;;;;;;10406252;28;1974;-72
2023/03/15 01:54:54;;;;;;;;;;;17.80;44.90;;;;;;10412807;28;933;-72
2023/03/15 01:59:50;;;;;;;;;;;17.70;44.70;;;;;;10414637;28;886;-72
2023/03/15 02:04:45;;;;;;;;;;;17.70;44.90;;;;;;10415118;28;860;-72
2023/03/15 02:09:40;;;;;;;;;;;17.70;44.90;;;;;;10414290;28;1977;-73
2023/03/15 02:14:36;;;;;;;;;;;17.70;44.80;;;;;;10414728;28;830;-73
2023/03/15 02:19:32;;;;;;;;;;;17.70;44.70;;;;;;10414563;28;826;-72
2023/03/15 02:24:28;;;;;;;;;;;17.70;44.80;;;;;;10413898;28;806;-72
2023/03/15 02:29:23;;;;;;;;;;;17.60;44.90;;;;;;10413460;28;1897;-72
2023/03/15 02:34:18;;;;;;;;;;;17.70;44.70;;;;;;10412703;28;901;-72
2023/03/15 02:39:14;;;;;;;;;;;17.70;44.60;;;;;;10412909;28;1746;-72
2023/03/15 02:44:09;;;;;;;;;;;17.70;44.80;;;;;;10413781;28;837;-73
2023/03/15 02:49:05;;;;;;;;;;;17.60;44.70;;;;;;10412959;28;1961;-73
2023/03/15 02:54:00;;;;;;;;;;;17.70;44.70;;;;;;10412804;28;842;-72
2023/03/15 02:58:56;;;;;;;;;;;17.70;44.90;;;;;;10412424;28;774;-72
2023/03/15 03:03:51;;;;;;;;;;;17.70;44.90;;;;;;10411395;28;814;-72
2023/03/15 03:08:47;;;;;;;;;;;17.70;44.90;;;;;;10411992;28;921;-72
2023/03/15 03:13:42;;;;;;;;;;;17.70;44.90;;;;;;10411682;28;1957;-72
2023/03/15 03:18:37;;;;;;;;;;;17.70;44.80;;;;;;10411004;28;881;-72
2023/03/15 03:23:33;;;;;;;;;;;17.70;44.90;;;;;;10411383;28;930;-72
2023/03/15 03:28:28;;;;;;;;;;;17.70;44.90;;;;;;10412411;28;838;-72
2023/03/15 03:33:24;;;;;;;;;;;17.60;44.90;;;;;;10411517;28;1967;-72
2023/03/15 03:38:19;;;;;;;;;;;17.70;45.00;;;;;;10411384;28;963;-73
2023/03/15 03:43:14;;;;;;;;;;;17.60;45.00;;;;;;10411076;28;1140;-72
2023/03/15 03:48:10;;;;;;;;;;;17.60;45.00;;;;;;10410954;28;835;-72
2023/03/15 03:53:05;;;;;;;;;;;17.70;45.10;;;;;;10410711;28;1975;-72
2023/03/15 03:58:00;;;;;;;;;;;17.60;45.00;;;;;;10410550;28;874;-72
2023/03/15 04:02:56;;;;;;;;;;;17.60;45.70;;;;;;10410421;28;905;-73
2023/03/15 04:07:51;;;;;;;;;;;17.60;45.10;;;;;;10409055;28;1079;-72
2023/03/15 04:12:46;;;;;;;;;;;17.60;45.10;;;;;;10409405;28;1969;-72
2023/03/15 04:17:42;;;;;;;;;;;17.60;45.00;;;;;;10409812;28;914;-72
2023/03/15 04:22:37;;;;;;;;;;;17.60;45.10;;;;;;10409099;28;980;-72
2023/03/15 04:27:33;;;;;;;;;;;17.60;45.20;;;;;;10408852;28;818;-72
2023/03/15 04:32:28;;;;;;;;;;;17.60;45.30;;;;;;10408652;28;1923;-72
2023/03/15 04:37:23;;;;;;;;;;;17.60;45.20;;;;;;10408625;28;776;-72
2023/03/15 04:42:19;;;;;;;;;;;17.60;45.30;;;;;;10408622;28;1343;-72
2023/03/15 04:47:14;;;;;;;;;;;17.50;45.40;;;;;;10408869;28;858;-72
2023/03/15 04:52:09;;;;;;;;;;;17.50;45.20;;;;;;10408670;28;1914;-72
2023/03/15 04:57:05;;;;;;;;;;;17.60;45.30;;;;;;10409476;28;889;-72
2023/03/15 05:02:00;;;;;;;;;;;17.50;45.30;;;;;;10408016;28;917;-72
2023/03/15 05:06:55;;;;;;;;;;;17.60;45.30;;;;;;10407764;28;767;-72
2023/03/15 05:11:51;;;;;;;;;;;17.60;45.30;;;;;;10407069;28;1886;-72
2023/03/15 05:16:48;;;;;;;;;;;17.60;45.20;;;;;;10407563;28;822;-72
2023/03/15 05:21:43;;;;;;;;;;;17.60;45.20;;;;;;10408483;28;821;-75
2023/03/15 05:26:38;;;;;;;;;;;17.60;45.10;;;;;;10407422;28;1004;-74
2023/03/15 05:31:35;;;;;;;;;;;17.70;45.10;;;;;;10415759;28;1909;-77
2023/03/15 05:36:31;;;;;;;;;;;17.70;45.10;;;;;;10416510;28;941;-75
2023/03/15 05:41:26;;;;;;;;;;;17.70;45.20;;;;;;10415488;28;1528;-74
2023/03/15 05:46:21;;;;;;;;;;;17.70;45.20;;;;;;10415847;28;788;-75
2023/03/15 05:51:17;;;;;;;;;;;17.70;45.20;;;;;;10415022;28;1906;-80
2023/03/15 05:56:12;;;;;;;;;;;17.70;45.10;;;;;;10415510;28;881;-80
2023/03/15 06:01:08;;;;;;;;;;;17.80;45.50;;;;;;10414693;28;921;-81
2023/03/15 06:06:03;;;;;;;;;;;17.80;45.50;;;;;;10413784;28;913;-81
2023/03/15 06:10:59;;;;;;;;;;;17.70;45.40;;;;;;10414190;28;1971;-82
2023/03/15 06:15:54;;;;;;;;;;;17.70;45.20;;;;;;10413508;28;1362;-77
2023/03/15 06:20:50;;;;;;;;;;;17.80;45.00;;;;;;10413960;28;778;-76
2023/03/15 06:25:45;;;;;;;;;;;17.80;45.10;;;;;;10414364;28;771;-83
2023/03/15 06:30:41;;;;;;;;;;;17.80;45.10;;;;;;10413407;28;1909;-79
2023/03/15 06:35:36;;;;;;;;;;;17.80;45.10;;;;;;10413743;28;834;-81
2023/03/15 06:40:31;;;;;;;;;;;17.70;45.50;;;;;;10412963;28;1272;-80
2023/03/15 06:45:27;;;;;;;;;;;17.70;46.10;;;;;;10413012;28;818;-79
2023/03/15 06:50:22;;;;;;;;;;;17.70;45.60;;;;;;10412715;28;1913;-79
2023/03/15 06:55:18;;;;;;;;;;;17.70;45.70;;;;;;10412604;28;917;-82
2023/03/15 07:00:13;;;;;;;;;;;17.70;45.70;;;;;;10412976;28;831;-81
2023/03/15 07:05:09;;;;;;;;;;;17.80;45.90;;;;;;10412212;28;932;-80
2023/03/15 07:10:04;;;;;;;;;;;17.80;46.10;;;;;;10412996;28;1910;-78
2023/03/15 07:14:59;;;;;;;;;;;17.70;45.90;;;;;;10412376;28;850;-82
2023/03/15 07:19:55;;;;;;;;;;;17.60;46.00;;;;;;10411796;28;853;-77
2023/03/15 07:24:50;;;;;;;;;;;17.60;46.10;;;;;;10411153;28;802;-81
2023/03/15 07:29:45;;;;;;;;;;;17.60;46.40;;;;;;10411051;28;1973;-82
2023/03/15 07:34:41;;;;;;;;;;;17.70;46.50;;;;;;10411071;28;891;-82
2023/03/15 07:39:36;;;;;;;;;;;17.70;47.00;;;;;;10410613;28;1258;-80
2023/03/15 07:44:32;;;;;;;;;;;17.80;46.40;;;;;;10410471;28;878;-83
2023/03/15 07:49:27;;;;;;;;;;;17.80;46.40;;;;;;10410481;28;1917;-82
2023/03/15 07:54:22;;;;;;;;;;;17.80;46.40;;;;;;10411457;28;936;-81
2023/03/15 07:59:18;;;;;;;;;;;17.90;46.40;;;;;;10410024;28;770;-82
2023/03/15 08:04:13;;;;;;;;;;;17.90;46.60;;;;;;10409828;28;850;-82
2023/03/15 08:09:08;;;;;;;;;;;17.90;46.70;;;;;;10409665;28;1046;-82
2023/03/15 08:14:04;;;;;;;;;;;17.90;46.90;;;;;;10409266;28;1886;-80
2023/03/15 08:19:00;;;;;;;;;;;17.90;46.70;;;;;;10409201;28;897;-82
2023/03/15 08:23:55;;;;;;;;;;;17.90;46.80;;;;;;10409279;28;1098;-80
2023/03/15 08:28:50;;;;;;;;;;;17.90;46.70;;;;;;10409505;28;882;-81
2023/03/15 08:33:46;;;;;;;;;;;17.80;47.00;;;;;;10408347;28;1901;-80
2023/03/15 08:38:41;;;;;;;;;;;17.70;46.90;;;;;;10407750;28;1226;-79
2023/03/15 08:43:36;;;;;;;;;;;17.70;46.80;;;;;;10408388;28;959;-80
2023/03/15 08:48:32;;;;;;;;;;;17.70;46.70;;;;;;10408273;28;961;-80
2023/03/15 08:53:27;;;;;;;;;;;17.70;46.60;;;;;;10408597;28;1905;-80
2023/03/15 08:58:22;;;;;;;;;;;17.70;46.50;;;;;;10408610;28;811;-79
2023/03/15 09:03:18;;;;;;;;;;;17.70;46.30;;;;;;10405933;28;991;-79
2023/03/15 09:08:15;;;;;;;;;;;17.70;46.20;;;;;;10408290;28;818;-80
2023/03/15 09:13:11;;;;;;;;;;;17.70;46.20;;;;;;10408485;28;1965;-79
2023/03/15 09:18:06;;;;;;;;;;;17.70;46.10;;;;;;10407731;28;1044;-80
2023/03/15 09:23:02;;;;;;;;;;;17.70;46.10;;;;;;10408340;28;850;-80
2023/03/15 09:27:57;;;;;;;;;;;17.70;46.00;;;;;;10407514;28;830;-80
2023/03/15 09:32:53;;;;;;;;;;;17.70;46.60;;;;;;10406899;28;1898;-81
2023/03/15 09:37:48;;;;;;;;;;;17.70;46.00;;;;;;10407821;28;877;-81
2023/03/15 09:42:43;;;;;;;;;;;17.70;46.00;;;;;;10406479;28;1427;-76
2023/03/15 09:47:39;;;;;;;;;;;17.60;45.90;;;;;;10407169;28;842;-75
2023/03/15 09:52:34;;;;;;;;;;;17.60;45.90;;;;;;10407218;28;1898;-76
2023/03/15 09:57:30;;;;;;;;;;;17.60;45.90;;;;;;10407761;28;854;-75
2023/03/15 10:02:26;;;;;;;;;;;17.60;45.90;;;;;;10406429;28;985;-75
2023/03/15 10:07:21;;;;;;;;;;;17.60;45.90;;;;;;10406463;28;783;-74
2023/03/15 10:12:16;;;;;;;;;;;17.60;45.90;;;;;;10405792;28;1963;-75
2023/03/15 10:17:12;;;;;;;;;;;17.60;45.90;;;;;;10414861;28;927;-72
2023/03/15 10:22:07;;;;;;;;;;;17.70;45.90;;;;;;10413625;28;889;-72
2023/03/15 10:27:02;;;;;;;;;;;17.90;46.20;;;;;;10413542;28;807;-72
2023/03/15 10:31:58;;;;;;;;;;;17.90;46.30;;;;;;10413052;28;1961;-72
2023/03/15 10:36:54;;;;;;;;;;;18.00;46.50;;;;;;10413797;28;814;-72
2023/03/15 10:41:49;;;;;;;;;;;18.00;46.40;;;;;;10372211;28;1336;-73
2023/03/15 10:46:44;;;;;;;;;;;18.00;46.40;;;;;;10371449;28;966;-71
2023/03/15 10:51:40;;;;;;;;;;;18.10;46.40;;;;;;10370548;28;1882;-71
2023/03/15 10:56:35;;;;;;;;;;;18.00;46.40;;;;;;10370976;28;773;-73
2023/03/15 11:01:34;;;;;;;;;;;17.90;45.90;;;;;;10370813;28;800;-73
2023/03/15 11:06:29;;;;;;;;;;;17.90;45.80;;;;;;10370641;28;854;-73
2023/03/15 11:11:25;;;;;;;;;;;17.90;45.60;;;;;;10370442;28;1905;-73
2023/03/15 11:16:20;;;;;;;;;;;18.00;45.10;;;;;;10370873;28;973;-73
2023/03/15 11:21:16;;;;;;;;;;;17.90;45.50;;;;;;10369485;28;887;-74
2023/03/15 11:26:11;;;;;;;;;;;18.00;46.00;;;;;;10369716;28;874;-78
2023/03/15 11:31:07;;;;;;;;;;;17.90;45.90;;;;;;10370180;28;1957;-78
2023/03/15 11:36:02;;;;;;;;;;;17.80;45.90;;;;;;10369564;28;913;-79
2023/03/15 11:40:57;;;;;;;;;;;17.70;46.10;;;;;;10368936;28;1377;-79
2023/03/15 11:45:53;;;;;;;;;;;17.70;46.00;;;;;;10369936;28;850;-79
2023/03/15 11:50:48;;;;;;;;;;;17.70;45.80;;;;;;10368854;28;1902;-80
2023/03/15 11:55:43;;;;;;;;;;;17.70;45.80;;;;;;10367994;28;866;-80
2023/03/15 12:00:39;;;;;;;;;;;17.60;45.70;;;;;;10369384;28;891;-79
2023/03/15 12:05:34;;;;;;;;;;;17.70;45.60;;;;;;10368939;28;870;-79
2023/03/15 12:10:30;;;;;;;;;;;17.60;45.80;;;;;;10367553;28;1961;-72
2023/03/15 12:15:25;;;;;;;;;;;17.70;45.60;;;;;;10368680;28;834;-76
2023/03/15 12:20:21;;;;;;;;;;;18.00;46.60;;;;;;10367130;28;929;-76
2023/03/15 12:25:16;;;;;;;;;;;18.10;46.70;;;;;;10367532;28;842;-77
2023/03/15 12:30:11;;;;;;;;;;;18.10;46.80;;;;;;10366872;28;1902;-76
2023/03/15 12:35:07;;;;;;;;;;;18.20;46.80;;;;;;10366726;28;819;-75
2023/03/15 12:40:03;;;;;;;;;;;18.20;46.90;;;;;;10365742;28;1232;-76
2023/03/15 12:44:59;;;;;;;;;;;18.20;46.90;;;;;;10366308;28;1124;-75
2023/03/15 12:49:54;;;;;;;;;;;18.30;46.70;;;;;;10366747;28;1906;-75
2023/03/15 12:54:49;;;;;;;;;;;18.40;46.90;;;;;;10366141;28;890;-86
2023/03/15 12:59:45;;;;;;;;;;;18.20;46.70;;;;;;10364868;28;1074;-75
2023/03/15 13:04:40;;;;;;;;;;;18.30;46.50;;;;;;10365765;28;872;-74
2023/03/15 13:09:36;;;;;;;;;;;18.40;46.60;;;;;;10365736;28;1902;-70
2023/03/15 13:14:31;;;;;;;;;;;18.50;46.80;;;;;;10362147;28;1054;-72
2023/03/15 13:19:27;;;;;;;;;;;18.50;46.40;;;;;;10363674;28;1067;-72
2023/03/15 13:24:22;;;;;;;;;;;18.40;46.50;;;;;;10365566;28;925;-72
2023/03/15 13:29:18;;;;;;;;;;;18.50;46.20;;;;;;10365375;28;763;-72
2023/03/15 13:34:14;;;;;;;;;;;18.50;46.20;;;;;;10366357;28;1979;-72
2023/03/15 13:39:10;;;;;;;;;;;18.50;46.10;;;;;;10365180;28;1387;-72
2023/03/15 13:44:05;;;;;;;;;;;18.50;46.10;;;;;;10365891;28;813;-73
2023/03/15 13:49:01;;;;;;;;;;;18.50;46.10;;;;;;10368113;28;841;-73
2023/03/15 13:53:56;;;;;;;;;;;18.40;46.20;;;;;;10373230;28;1985;-75
2023/03/15 13:58:51;;;;;;;;;;;18.50;46.20;;;;;;10373540;28;844;-79
2023/03/15 14:03:47;;;;;;;;;;;18.70;46.00;;;;;;10372564;28;859;-79
2023/03/15 14:08:42;;;;;;;;;;;18.40;46.10;;;;;;10372261;28;1287;-79
2023/03/15 14:13:38;;;;;;;;;;;18.40;46.20;;;;;;10372277;28;1964;-77
2023/03/15 14:18:33;;;;;;;;;;;18.50;46.10;;;;;;10371564;28;929;-77
2023/03/15 14:23:29;;;;;;;;;;;18.60;46.00;;;;;;10372331;28;832;-76
2023/03/15 14:28:24;;;;;;;;;;;18.60;46.10;;;;;;10371846;28;898;-76
2023/03/15 14:33:20;;;;;;;;;;;18.50;46.10;;;;;;10371567;28;1977;-76
2023/03/15 14:38:15;;;;;;;;;;;18.40;46.20;;;;;;10371417;28;783;-78
2023/03/15 14:43:11;;;;;;;;;;;18.40;46.20;;;;;;10371847;28;1641;-77
2023/03/15 14:48:07;;;;;;;;;;;18.70;45.90;;;;;;10371239;28;856;-79
2023/03/15 14:53:02;;;;;;;;;;;18.80;45.90;;;;;;10371347;28;1905;-78
2023/03/15 14:57:57;;;;;;;;;;;18.90;45.80;;;;;;10370098;28;1085;-78
2023/03/15 15:02:53;;;;;;;;;;;19.00;45.60;;;;;;10369598;28;819;-77
2023/03/15 15:07:49;;;;;;;;;;;19.10;45.50;;;;;;10370548;28;889;-77
2023/03/15 15:12:44;;;;;;;;;;;19.10;45.50;;;;;;10370390;28;1972;-76
2023/03/15 15:17:39;;;;;;;;;;;19.20;45.50;;;;;;10370329;28;811;-78
2023/03/15 15:22:35;;;;;;;;;;;19.20;45.40;;;;;;10370051;28;901;-76
2023/03/15 15:27:30;;;;;;;;;;;19.20;45.30;;;;;;10369919;28;1129;-77
2023/03/15 15:32:26;;;;;;;;;;;19.30;45.30;;;;;;10369690;28;1968;-77
2023/03/15 15:37:21;;;;;;;;;;;19.30;45.30;;;;;;10370041;28;870;-77
2023/03/15 15:42:17;;;;;;;;;;;19.30;45.30;;;;;;10368859;28;1223;-78
2023/03/15 15:47:12;;;;;;;;;;;19.30;45.30;;;;;;10368555;28;862;-78
2023/03/15 15:52:07;;;;;;;;;;;19.30;45.50;;;;;;10369671;28;1978;-76
2023/03/15 15:57:03;;;;;;;;;;;19.30;45.40;;;;;;10368256;28;942;-76
2023/03/15 16:01:58;;;;;;;;;;;19.20;45.30;;;;;;10368819;28;811;-76
2023/03/15 16:06:54;;;;;;;;;;;19.20;45.40;;;;;;10368938;28;845;-76
2023/03/15 16:11:49;;;;;;;;;;;19.10;45.40;;;;;;10367600;28;1910;-78
2023/03/15 16:16:46;;;;;;;;;;;19.00;45.50;;;;;;10367590;28;815;-77
2023/03/15 16:21:41;;;;;;;;;;;18.90;45.40;;;;;;10367418;28;858;-76
2023/03/15 16:26:37;;;;;;;;;;;18.90;45.40;;;;;;10367826;28;898;-76
2023/03/15 16:31:33;;;;;;;;;;;18.80;45.50;;;;;;10367580;28;1918;-76
2023/03/15 16:36:29;;;;;;;;;;;18.70;45.50;;;;;;10366932;28;858;-76
2023/03/15 16:41:24;;;;;;;;;;;18.70;45.30;;;;;;10366499;28;1121;-77
2023/03/15 16:46:20;;;;;;;;;;;18.90;46.00;;;;;;10366076;28;1631;-77
2023/03/15 16:51:15;;;;;;;;;;;18.80;46.20;;;;;;10366436;28;1979;-76
2023/03/15 16:56:11;;;;;;;;;;;18.80;46.50;;;;;;10366367;28;862;-75
2023/03/15 17:01:07;;;;;;;;;;;18.80;46.90;;;;;;10366883;28;811;-76
2023/03/15 17:06:02;;;;;;;;;;;18.80;46.70;;;;;;10366145;28;787;-77
2023/03/15 17:10:57;;;;;;;;;;;18.80;46.50;;;;;;10366703;28;1967;-77
2023/03/15 17:15:53;;;;;;;;;;;18.80;46.60;;;;;;10366451;28;897;-74
2023/03/15 17:20:49;;;;;;;;;;;18.60;47.10;;;;;;10365916;28;898;-80
2023/03/15 17:25:44;;;;;;;;;;;18.60;46.50;;;;;;10372599;28;806;-79
2023/03/15 17:30:40;;;;;;;;;;;18.50;46.40;;;;;;10374113;28;1909;-78
2023/03/15 17:35:35;;;;;;;;;;;18.50;46.10;;;;;;10373972;28;803;-79
2023/03/15 17:40:31;;;;;;;;;;;18.50;46.10;;;;;;10373060;28;1266;-79
2023/03/15 17:45:26;;;;;;;;;;;18.50;46.00;;;;;;10374258;28;849;-80
2023/03/15 17:50:21;;;;;;;;;;;18.50;46.00;;;;;;10374403;28;1922;-79
2023/03/15 17:55:17;;;;;;;;;;;18.50;45.80;;;;;;10373265;28;830;-79
2023/03/15 18:00:12;;;;;;;;;;;18.50;45.80;;;;;;10373069;28;946;-79
2023/03/15 18:05:07;;;;;;;;;;;18.50;45.80;;;;;;10373497;28;854;-79
2023/03/15 18:10:03;;;;;;;;;;;18.50;45.70;;;;;;10373166;28;1910;-82
2023/03/15 18:14:59;;;;;;;;;;;18.50;45.70;;;;;;10372754;28;859;-81
2023/03/15 18:19:54;;;;;;;;;;;18.50;45.70;;;;;;10372511;28;867;-82
2023/03/15 18:24:49;;;;;;;;;;;18.50;45.60;;;;;;10372393;28;926;-79
2023/03/15 18:29:45;;;;;;;;;;;18.50;45.60;;;;;;10371350;28;1965;-76
2023/03/15 18:34:40;;;;;;;;;;;18.50;45.50;;;;;;10371507;28;848;-77
2023/03/15 18:39:37;;;;;;;;;;;18.50;45.40;;;;;;10371798;28;1284;-78
2023/03/15 18:44:33;;;;;;;;;;;18.50;45.40;;;;;;10371312;28;939;-77
2023/03/15 18:49:28;;;;;;;;;;;18.50;45.30;;;;;;10371177;28;835;-79
2023/03/15 18:54:24;;;;;;;;;;;18.60;45.30;;;;;;10370787;28;1989;-79
2023/03/15 18:59:20;;;;;;;;;;;18.60;45.20;;;;;;10370833;28;768;-79
2023/03/15 19:04:15;;;;;;;;;;;18.50;45.10;;;;;;10370722;28;812;-79
2023/03/15 19:09:11;;;;;;;;;;;18.50;45.20;;;;;;10370934;28;904;-78
2023/03/15 19:14:06;;;;;;;;;;;18.50;45.10;;;;;;10370307;28;1889;-78
2023/03/15 19:19:01;;;;;;;;;;;18.50;45.20;;;;;;10370296;28;862;-74
2023/03/15 19:23:57;;;;;;;;;;;18.50;45.10;;;;;;10370128;28;960;-74
2023/03/15 19:28:52;;;;;;;;;;;18.50;45.10;;;;;;10369929;28;810;-73
2023/03/15 19:33:47;;;;;;;;;;;18.50;45.00;;;;;;10369104;28;1901;-73
2023/03/15 19:38:43;;;;;;;;;;;18.50;45.00;;;;;;10369348;28;1419;-74
2023/03/15 19:43:41;;;;;;;;;;;18.60;44.90;;;;;;10370094;28;949;-73
2023/03/15 19:48:36;;;;;;;;;;;18.50;44.80;;;;;;10368399;28;787;-73
2023/03/15 19:53:31;;;;;;;;;;;18.50;44.80;;;;;;10369707;28;1922;-74
2023/03/15 19:58:27;;;;;;;;;;;18.60;44.70;;;;;;10368745;28;993;-75
2023/03/15 20:03:22;;;;;;;;;;;18.60;45.00;;;;;;10368329;28;877;-74
2023/03/15 20:08:18;;;;;;;;;;;18.90;46.10;;;;;;10368063;28;1046;-80
2023/03/15 20:13:14;;;;;;;;;;;18.90;46.30;;;;;;10367592;28;1961;-75
2023/03/15 20:18:11;;;;;;;;;;;18.90;46.50;;;;;;10374833;28;1264;-74
2023/03/15 20:23:07;;;;;;;;;;;18.90;46.40;;;;;;10370118;28;1230;-75
2023/03/15 20:28:03;;;;;;;;;;;19.00;46.50;;;;;;10368907;28;894;-74
2023/03/15 20:32:59;;;;;;;;;;;18.90;47.10;;;;;;10369862;28;1955;-75
2023/03/15 20:37:55;;;;;;;;;;;18.90;46.60;;;;;;10368495;28;942;-74
2023/03/15 20:42:50;;;;;;;;;;;18.90;46.50;;;;;;10367514;28;1158;-74
2023/03/15 20:47:45;;;;;;;;;;;18.90;46.50;;;;;;10367055;28;819;-74
2023/03/15 20:52:44;;;;;;;;;;;18.90;46.50;;;;;;10366660;28;1977;-74
2023/03/15 20:57:42;;;;;;;;;;;18.90;46.60;;;;;;10365784;28;806;-73
2023/03/15 21:02:38;;;;;;;;;;;18.80;46.60;;;;;;10366544;28;880;-72
2023/03/15 21:07:33;;;;;;;;;;;18.80;46.50;;;;;;10366428;28;909;-72
2023/03/15 21:12:29;;;;;;;;;;;18.80;46.40;;;;;;10366315;28;1910;-72
2023/03/15 21:17:24;;;;;;;;;;;18.70;46.30;;;;;;10366954;28;951;-72
2023/03/15 21:22:20;;;;;;;;;;;18.80;46.20;;;;;;10366162;28;862;-75
2023/03/15 21:27:15;;;;;;;;;;;18.70;46.80;;;;;;10366649;28;847;-76
2023/03/15 21:32:10;;;;;;;;;;;18.70;46.10;;;;;;10366491;28;1910;-75
2023/03/15 21:37:06;;;;;;;;;;;18.70;46.10;;;;;;10365884;28;777;-75
2023/03/15 21:42:02;;;;;;;;;;;18.70;46.00;;;;;;10366673;28;1136;-75
2023/03/15 21:46:58;;;;;;;;;;;18.70;46.10;;;;;;10366296;28;854;-78
2023/03/15 21:51:53;;;;;;;;;;;18.70;46.10;;;;;;10372801;28;1917;-78
2023/03/15 21:56:48;;;;;;;;;;;18.60;46.10;;;;;;10388907;28;1214;-78
2023/03/15 22:01:44;;;;;;;;;;;18.60;46.10;;;;;;10378997;28;1234;-78
2023/03/15 22:06:39;;;;;;;;;;;18.60;46.10;;;;;;10365638;28;884;-78
2023/03/15 22:11:35;;;;;;;;;;;18.60;46.10;;;;;;10409505;28;1905;-78
2023/03/15 22:16:32;;;;;;;;;;;18.60;46.10;;;;;;10413783;28;776;-78
2023/03/15 22:21:27;;;;;;;;;;;18.50;46.10;;;;;;10414760;28;896;-78
2023/03/15 22:26:22;;;;;;;;;;;18.50;46.10;;;;;;10393736;28;1166;-78
2023/03/15 22:31:18;;;;;;;;;;;18.50;46.10;;;;;;10373010;28;1910;-78
2023/03/15 22:36:16;;;;;;;;;;;18.50;46.00;;;;;;10372038;28;1067;-78
2023/03/15 22:41:12;;;;;;;;;;;18.50;46.10;;;;;;10372105;28;1377;-78
2023/03/15 22:46:08;;;;;;;;;;;18.40;46.00;;;;;;10371777;28;882;-78
2023/03/15 22:51:03;;;;;;;;;;;18.40;46.00;;;;;;10370883;28;1914;-78
2023/03/15 22:55:58;;;;;;;;;;;18.40;46.00;;;;;;10370741;28;862;-79
2023/03/15 23:00:54;;;;;;;;;;;18.40;46.10;;;;;;10369107;28;1069;-78
2023/03/15 23:05:49;;;;;;;;;;;18.40;46.10;;;;;;10370716;28;928;-79
2023/03/15 23:10:45;;;;;;;;;;;18.40;46.10;;;;;;10370817;28;1966;-81
2023/03/15 23:15:40;;;;;;;;;;;18.40;46.10;;;;;;10369910;28;846;-78
2023/03/15 23:20:36;;;;;;;;;;;18.40;46.10;;;;;;10369827;28;874;-77
2023/03/15 23:25:34;;;;;;;;;;;18.40;46.20;;;;;;10370020;28;857;-75
2023/03/15 23:30:33;;;;;;;;;;;18.40;46.10;;;;;;10369853;28;1975;-76
2023/03/15 23:35:28;;;;;;;;;;;18.40;46.10;;;;;;10369758;28;803;-74
2023/03/15 23:40:24;;;;;;;;;;;18.40;45.90;;;;;;10370115;28;1311;-74
2023/03/15 23:45:19;;;;;;;;;;;18.40;46.00;;;;;;10369315;28;836;-74
2023/03/15 23:50:16;;;;;;;;;;;18.40;45.90;;;;;;10369713;28;1922;-74
2023/03/15 23:55:11;;;;;;;;;;;18.40;45.90;;;;;;10369067;28;850;-74
